createdAt,value
2023-08-07T00:01:54.745Z,4.25
2023-08-07T00:04:21.432Z,3.70
2023-08-07T00:06:47.926Z,4.68
2023-08-07T00:09:14.392Z,2.90
2023-08-07T00:11:40.853Z,4.15
2023-08-07T00:14:07.314Z,5.82
2023-08-07T00:16:33.781Z,4.03
2023-08-07T00:19:00.241Z,5.00
2023-08-07T00:21:26.721Z,3.95
2023-08-07T00:23:53.204Z,4.35
2023-08-07T00:26:20.699Z,3.85
2023-08-07T00:28:47.407Z,5.40
2023-08-07T00:31:13.904Z,4.05
2023-08-07T00:33:40.542Z,4.95
2023-08-07T00:36:07.046Z,5.32
2023-08-07T00:38:34.017Z,5.13
2023-08-07T00:41:01.072Z,4.82
2023-08-07T00:43:27.669Z,5.68
2023-08-07T00:45:54.591Z,4.68
2023-08-07T00:48:21.278Z,5.38
2023-08-07T00:50:49.506Z,5.55
2023-08-07T00:53:16.347Z,3.90
2023-08-07T00:55:44.330Z,5.10
2023-08-07T00:58:11.776Z,3.42
2023-08-07T01:00:38.431Z,6.07
2023-08-07T01:03:08.579Z,5.18
2023-08-07T01:05:35.389Z,6.30
2023-08-07T01:08:02.713Z,4.40
2023-08-07T01:10:39.507Z,5.30
2023-08-07T01:13:37.744Z,5.50
2023-08-07T01:16:18.669Z,3.97
2023-08-07T01:18:47.924Z,4.53
2023-08-07T01:21:21.255Z,5.18
2023-08-07T01:23:48.809Z,4.85
2023-08-07T01:26:16.638Z,5.13
2023-08-07T01:29:07.299Z,6.40
2023-08-07T01:31:38.210Z,7.68
2023-08-07T01:34:12.066Z,4.80
2023-08-07T01:36:40.162Z,6.68
2023-08-07T01:39:08.116Z,6.60
2023-08-07T01:41:36.295Z,6.07
2023-08-07T01:44:02.877Z,5.38
2023-08-07T01:46:29.444Z,6.22
2023-08-07T01:48:55.915Z,6.97
2023-08-07T01:51:22.392Z,5.90
2023-08-07T01:53:48.911Z,4.18
2023-08-07T01:56:15.361Z,4.85
2023-08-07T01:58:41.801Z,4.05
2023-08-07T02:01:08.293Z,5.38
2023-08-07T02:03:34.954Z,3.47
2023-08-07T02:06:03.044Z,6.13
2023-08-07T02:08:29.586Z,5.55
2023-08-07T02:10:56.152Z,7.50
2023-08-07T02:13:22.643Z,4.78
2023-08-07T02:15:49.073Z,6.88
2023-08-07T02:18:15.542Z,5.57
2023-08-07T02:20:41.966Z,4.13
2023-08-07T02:23:08.467Z,6.00
2023-08-07T02:25:35.451Z,7.85
2023-08-07T02:28:01.961Z,5.47
2023-08-07T02:30:28.467Z,7.32
2023-08-07T02:32:54.962Z,4.35
2023-08-07T02:35:21.432Z,3.90
2023-08-07T02:37:47.922Z,6.30
2023-08-07T02:40:16.472Z,7.55
2023-08-07T02:42:43.555Z,5.50
2023-08-07T02:45:10.226Z,5.32
2023-08-07T02:47:36.816Z,3.33
2023-08-07T02:50:03.458Z,5.40
2023-08-07T02:52:30.813Z,3.03
2023-08-07T02:54:57.298Z,4.65
2023-08-07T02:57:23.763Z,3.97
2023-08-07T02:59:50.233Z,5.15
2023-08-07T03:02:16.738Z,3.85
2023-08-07T03:04:43.185Z,5.45
2023-08-07T03:07:09.672Z,5.35
2023-08-07T03:09:36.148Z,7.97
2023-08-07T03:12:05.279Z,5.38
2023-08-07T03:14:32.192Z,5.80
2023-08-07T03:16:58.704Z,4.55
2023-08-07T03:19:25.190Z,7.55
2023-08-07T03:21:51.659Z,4.25
2023-08-07T03:24:18.097Z,7.15
2023-08-07T03:26:45.378Z,7.38
2023-08-07T03:29:11.886Z,6.47
2023-08-07T03:31:38.505Z,5.80
2023-08-07T03:34:05.076Z,6.07
2023-08-07T03:36:31.529Z,5.28
2023-08-07T03:38:58.012Z,5.80
2023-08-07T03:41:24.549Z,5.85
2023-08-07T03:43:51.057Z,4.55
2023-08-07T03:46:17.597Z,5.25
2023-08-07T03:48:44.092Z,4.72
2023-08-07T03:51:10.718Z,4.28
2023-08-07T03:53:38.109Z,4.85
2023-08-07T03:56:04.916Z,4.72
2023-08-07T03:58:31.404Z,4.25
2023-08-07T04:00:57.888Z,4.95
2023-08-07T04:03:24.500Z,5.18
2023-08-07T04:05:55.648Z,5.40
2023-08-07T04:08:23.116Z,4.68
2023-08-07T04:11:03.418Z,6.22
2023-08-07T04:13:30.622Z,5.60
2023-08-07T04:15:57.640Z,8.52
2023-08-07T04:18:24.402Z,6.03
2023-08-07T04:20:54.948Z,4.30
2023-08-07T04:23:22.507Z,4.95
2023-08-07T04:25:49.376Z,5.80
2023-08-07T04:28:15.854Z,4.20
2023-08-07T04:30:42.837Z,5.28
2023-08-07T04:33:09.467Z,5.05
2023-08-07T04:35:35.958Z,3.65
2023-08-07T04:38:03.462Z,6.68
2023-08-07T04:40:30.330Z,5.47
2023-08-07T04:42:57.787Z,5.38
2023-08-07T04:45:24.518Z,4.72
2023-08-07T04:47:51.908Z,5.53
2023-08-07T04:50:18.594Z,4.20
2023-08-07T04:52:45.180Z,6.57
2023-08-07T04:55:11.688Z,4.43
2023-08-07T04:57:38.246Z,5.95
2023-08-07T05:00:05.338Z,4.35
2023-08-07T05:02:31.881Z,3.35
2023-08-07T05:04:58.513Z,5.68
2023-08-07T05:07:25.038Z,4.45
2023-08-07T05:09:52.007Z,7.47
2023-08-07T05:12:18.467Z,6.60
2023-08-07T05:14:45.050Z,5.30
2023-08-07T05:17:11.521Z,4.68
2023-08-07T05:19:37.974Z,4.60
2023-08-07T05:22:05.281Z,4.20
2023-08-07T05:24:39.491Z,7.53
2023-08-07T05:27:10.177Z,3.78
2023-08-07T05:29:44.609Z,4.40
2023-08-07T05:32:13.013Z,6.40
2023-08-07T05:34:39.804Z,6.47
2023-08-07T05:37:07.268Z,3.85
2023-08-07T05:39:38.820Z,7.65
2023-08-07T05:42:05.738Z,4.97
2023-08-07T05:44:32.324Z,5.82
2023-08-07T05:46:58.893Z,5.70
2023-08-07T05:49:26.560Z,8.73
2023-08-07T05:51:54.018Z,5.30
2023-08-07T05:54:20.888Z,6.05
2023-08-07T05:56:47.337Z,5.50
2023-08-07T05:59:14.140Z,6.15
2023-08-07T06:01:42.135Z,5.53
2023-08-07T06:04:10.231Z,4.93
2023-08-07T06:06:37.080Z,8.07
2023-08-07T06:09:04.964Z,4.05
2023-08-07T06:11:31.797Z,5.65
2023-08-07T06:13:58.327Z,3.65
2023-08-07T06:16:24.910Z,4.85
2023-08-07T06:18:51.399Z,5.38
2023-08-07T06:21:17.917Z,4.88
2023-08-07T06:23:44.366Z,4.10
2023-08-07T06:26:10.817Z,4.95
2023-08-07T06:28:40.306Z,4.70
2023-08-07T06:31:09.004Z,5.03
2023-08-07T06:33:36.072Z,6.50
2023-08-07T06:36:04.842Z,5.43
2023-08-07T06:38:31.807Z,4.53
2023-08-07T06:40:58.488Z,6.13
2023-08-07T06:43:24.997Z,4.53
2023-08-07T06:45:51.673Z,4.47
2023-08-07T06:48:19.288Z,5.88
2023-08-07T06:50:50.876Z,4.97
2023-08-07T06:53:17.516Z,6.53
2023-08-07T06:55:44.625Z,5.90
2023-08-07T06:58:11.578Z,4.00
2023-08-07T07:00:38.560Z,4.57
2023-08-07T07:03:05.590Z,5.50
2023-08-07T07:05:33.692Z,7.03
2023-08-07T07:08:00.561Z,4.85
2023-08-07T07:10:27.071Z,6.18
2023-08-07T07:12:53.589Z,4.05
2023-08-07T07:15:20.102Z,4.80
2023-08-07T07:17:46.674Z,4.35
2023-08-07T07:20:13.327Z,6.38
2023-08-07T07:22:39.779Z,5.68
2023-08-07T07:25:07.029Z,5.20
2023-08-07T07:27:33.526Z,7.13
2023-08-07T07:30:00.045Z,5.28
2023-08-07T07:32:27.391Z,4.40
2023-08-07T07:34:53.951Z,5.05
2023-08-07T07:37:20.454Z,5.43
2023-08-07T07:39:46.959Z,4.60
2023-08-07T07:42:13.431Z,7.38
2023-08-07T07:44:40.905Z,5.00
2023-08-07T07:47:10.039Z,4.25
2023-08-07T07:49:38.039Z,4.28
2023-08-07T07:52:04.880Z,3.85
2023-08-07T07:54:31.370Z,6.60
2023-08-07T07:56:58.217Z,5.93
2023-08-07T07:59:24.935Z,5.88
2023-08-07T08:01:52.299Z,6.32
2023-08-07T08:04:20.495Z,3.30
2023-08-07T08:06:49.455Z,6.47
2023-08-07T08:09:16.617Z,5.22
2023-08-07T08:11:43.435Z,3.70
2023-08-07T08:14:10.061Z,4.80
2023-08-07T08:16:36.737Z,5.43
2023-08-07T08:19:03.631Z,4.53
2023-08-07T08:21:31.873Z,4.40
2023-08-07T08:23:58.343Z,4.20
2023-08-07T08:26:24.827Z,5.70
2023-08-07T08:28:51.411Z,6.63
2023-08-07T08:31:17.922Z,6.38
2023-08-07T08:33:44.474Z,4.30
2023-08-07T08:36:11.542Z,5.20
2023-08-07T08:38:38.049Z,6.35
2023-08-07T08:41:06.146Z,5.43
2023-08-07T08:43:37.237Z,3.53
2023-08-07T08:46:06.392Z,7.15
2023-08-07T08:48:37.220Z,4.82
2023-08-07T08:51:05.165Z,7.45
2023-08-07T08:53:33.191Z,7.05
2023-08-07T08:56:02.913Z,4.97
2023-08-07T08:58:29.469Z,5.45
2023-08-07T09:00:56.011Z,5.10
2023-08-07T09:03:22.684Z,7.57
2023-08-07T09:05:50.863Z,5.00
2023-08-07T09:08:17.864Z,4.85
2023-08-07T09:10:44.355Z,6.55
2023-08-07T09:13:15.846Z,4.68
2023-08-07T09:15:51.727Z,4.57
2023-08-07T09:18:20.268Z,7.18
2023-08-07T09:20:47.409Z,4.05
2023-08-07T09:23:14.172Z,5.15
2023-08-07T09:25:40.647Z,6.05
2023-08-07T09:28:07.524Z,4.00
2023-08-07T09:30:36.608Z,4.20
2023-08-07T09:33:03.712Z,6.35
2023-08-07T09:35:32.359Z,4.65
2023-08-07T09:37:59.512Z,5.88
2023-08-07T09:40:26.353Z,4.68
2023-08-07T09:42:56.271Z,7.10
2023-08-07T09:45:31.175Z,5.97
2023-08-07T09:48:01.240Z,7.65
2023-08-07T09:50:29.065Z,5.50
2023-08-07T09:52:56.915Z,5.78
2023-08-07T09:55:23.851Z,4.65
2023-08-07T09:57:51.441Z,5.88
2023-08-07T10:00:21.104Z,5.82
2023-08-07T10:02:49.248Z,3.83
2023-08-07T10:05:17.037Z,7.25
2023-08-07T10:07:43.586Z,5.78
2023-08-07T10:10:11.344Z,5.68
2023-08-07T10:12:39.442Z,7.15
2023-08-07T10:15:06.735Z,4.65
2023-08-07T10:17:34.181Z,7.15
2023-08-07T10:20:00.821Z,6.45
2023-08-07T10:22:30.322Z,7.43
2023-08-07T10:24:59.964Z,5.70
2023-08-07T10:27:28.624Z,5.15
2023-08-07T10:29:56.983Z,5.97
2023-08-07T10:32:25.942Z,7.20
2023-08-07T10:34:52.582Z,5.05
2023-08-07T10:37:51.944Z,5.68
2023-08-07T10:40:20.356Z,5.30
2023-08-07T10:42:55.678Z,5.43
2023-08-07T10:45:23.964Z,5.25
2023-08-07T10:48:06.364Z,5.13
2023-08-07T10:50:34.025Z,4.72
2023-08-07T10:53:07.099Z,5.93
2023-08-07T10:55:47.083Z,7.90
2023-08-07T10:58:27.600Z,4.57
2023-08-07T11:01:17.507Z,6.53
2023-08-07T11:03:44.575Z,5.43
2023-08-07T11:06:12.242Z,3.90
2023-08-07T11:08:39.784Z,4.57
2023-08-07T11:11:07.194Z,4.72
2023-08-07T11:13:36.895Z,6.07
2023-08-07T11:16:04.251Z,5.88
2023-08-07T11:18:32.089Z,7.15
2023-08-07T11:20:59.109Z,3.83
2023-08-07T11:23:29.051Z,5.38
2023-08-07T11:25:56.678Z,7.20
2023-08-07T11:28:24.284Z,6.88
2023-08-07T11:30:53.177Z,5.20
2023-08-07T11:33:20.748Z,4.50
2023-08-07T11:35:48.169Z,5.25
2023-08-07T11:38:30.907Z,5.10
2023-08-07T11:41:02.061Z,5.47
2023-08-07T11:43:30.747Z,8.80
2023-08-07T11:46:02.103Z,3.58
2023-08-07T11:48:30.033Z,7.00
2023-08-07T11:50:58.176Z,5.00
2023-08-07T11:53:27.258Z,6.60
2023-08-07T11:55:58.397Z,7.07
2023-08-07T11:58:34.124Z,5.65
2023-08-07T12:01:05.460Z,4.93
2023-08-07T12:03:40.049Z,5.32
2023-08-07T12:06:08.348Z,5.32
2023-08-07T12:08:40.842Z,5.78
2023-08-07T12:11:12.917Z,8.15
2023-08-07T12:13:43.930Z,4.80
2023-08-07T12:16:10.716Z,4.60
2023-08-07T12:18:39.790Z,4.10
2023-08-07T12:21:08.673Z,4.00
2023-08-07T12:23:36.277Z,3.85
2023-08-07T12:26:03.666Z,6.28
2023-08-07T12:28:30.228Z,5.07
2023-08-07T12:30:57.833Z,5.32
2023-08-07T12:33:24.397Z,5.40
2023-08-07T12:35:51.116Z,3.33
2023-08-07T12:38:18.596Z,4.80
2023-08-07T12:40:46.144Z,6.88
2023-08-07T12:43:12.660Z,4.65
2023-08-07T12:48:08.760Z,5.68
2023-08-07T12:50:35.707Z,4.95
2023-08-07T12:53:02.714Z,6.03
2023-08-07T12:55:30.105Z,4.85
2023-08-07T12:57:57.207Z,5.22
2023-08-07T13:00:24.760Z,3.70
2023-08-07T13:02:52.189Z,6.80
2023-08-07T13:05:21.402Z,4.68
2023-08-07T13:07:48.150Z,3.78
2023-08-07T13:10:18.371Z,6.93
2023-08-07T13:12:48.022Z,6.97
2023-08-07T13:15:16.279Z,5.35
2023-08-07T13:17:43.982Z,6.07
2023-08-07T13:20:15.010Z,4.03
2023-08-07T13:22:43.606Z,5.00
2023-08-07T13:25:11.810Z,6.07
2023-08-07T13:27:39.763Z,3.25
2023-08-07T13:30:07.429Z,3.22
2023-08-07T13:32:33.971Z,4.95
2023-08-07T13:35:00.683Z,7.05
2023-08-07T13:37:27.213Z,3.75
2023-08-07T13:39:55.310Z,5.53
2023-08-07T13:42:24.235Z,4.82
2023-08-07T13:44:50.657Z,5.07
2023-08-07T13:47:19.066Z,3.85
2023-08-07T13:49:45.624Z,4.80
2023-08-07T13:52:12.096Z,3.67
2023-08-07T13:54:38.620Z,4.72
2023-08-07T13:57:05.570Z,4.60
2023-08-07T13:59:32.525Z,5.97
2023-08-07T14:02:00.727Z,3.50
2023-08-07T14:04:28.009Z,4.20
2023-08-07T14:06:54.835Z,3.42
2023-08-07T14:09:23.121Z,3.15
2023-08-07T14:11:50.904Z,2.85
2023-08-07T14:14:17.899Z,2.75
2023-08-07T14:16:44.981Z,4.30
2023-08-07T14:19:11.482Z,3.22
2023-08-07T14:21:38.024Z,2.10
2023-08-07T14:24:05.974Z,3.38
2023-08-07T14:26:32.469Z,3.92
2023-08-07T14:28:59.359Z,4.20
2023-08-07T14:31:25.892Z,5.03
2023-08-07T14:33:53.596Z,2.85
2023-08-07T14:36:21.224Z,2.97
2023-08-07T14:38:47.706Z,2.63
2023-08-07T14:41:14.208Z,5.88
2023-08-07T14:43:40.815Z,2.55
2023-08-07T14:46:07.293Z,4.18
2023-08-07T14:48:33.799Z,10.82
2023-08-07T14:51:00.454Z,4.38
2023-08-07T14:53:28.289Z,5.93
2023-08-07T14:55:54.769Z,4.20
2023-08-07T14:58:21.347Z,3.65
2023-08-07T15:00:47.816Z,4.32
2023-08-07T15:03:14.280Z,3.40
2023-08-07T15:05:40.772Z,4.95
2023-08-07T15:08:07.319Z,2.60
2023-08-07T15:10:34.259Z,3.92
2023-08-07T15:13:01.496Z,3.88
2023-08-07T15:15:28.054Z,4.13
2023-08-07T15:17:55.719Z,4.15
2023-08-07T15:20:22.236Z,2.75
2023-08-07T15:22:49.219Z,3.85
2023-08-07T15:25:16.015Z,5.40
2023-08-07T15:27:42.557Z,5.00
2023-08-07T15:30:11.281Z,3.20
2023-08-07T15:32:38.087Z,3.92
2023-08-07T15:35:05.000Z,3.63
2023-08-07T15:37:31.504Z,3.72
2023-08-07T15:39:58.167Z,4.50
2023-08-07T15:42:24.724Z,18.42
2023-08-07T15:44:51.208Z,31.58
2023-08-07T15:47:17.653Z,20.52
2023-08-07T15:49:48.766Z,14.88
2023-08-07T15:52:19.379Z,42.47
2023-08-07T15:54:47.195Z,59.80
2023-08-07T15:57:14.365Z,52.47
2023-08-07T15:59:41.579Z,47.72
2023-08-07T16:02:08.987Z,47.35
2023-08-07T16:04:35.944Z,45.35
2023-08-07T16:07:02.494Z,47.53
2023-08-07T16:09:28.953Z,48.97
2023-08-07T16:11:55.487Z,46.42
2023-08-07T16:14:24.307Z,44.60
2023-08-07T16:16:52.093Z,44.17
2023-08-07T16:19:19.361Z,40.60
2023-08-07T16:21:45.809Z,40.83
2023-08-07T16:24:12.308Z,37.92
2023-08-07T16:26:38.752Z,32.80
2023-08-07T16:29:05.272Z,27.58
2023-08-07T16:31:31.799Z,33.33
2023-08-07T16:33:58.387Z,28.60
2023-08-07T16:36:24.865Z,28.52
2023-08-07T16:38:52.662Z,25.48
2023-08-07T16:41:19.146Z,27.65
2023-08-07T16:43:45.671Z,20.73
2023-08-07T16:46:12.281Z,22.98
2023-08-07T16:48:39.173Z,24.95
2023-08-07T16:51:15.155Z,21.98
2023-08-07T16:53:42.959Z,19.08
2023-08-07T16:56:10.155Z,18.13
2023-08-07T16:58:37.520Z,16.77
2023-08-07T17:01:04.020Z,21.00
2023-08-07T17:03:30.593Z,20.95
2023-08-07T17:05:57.243Z,20.85
2023-08-07T17:08:24.456Z,16.77
2023-08-07T17:10:51.123Z,18.63
2023-08-07T17:13:17.638Z,15.70
2023-08-07T17:15:44.314Z,14.63
2023-08-07T17:18:10.754Z,16.60
2023-08-07T17:20:37.189Z,13.45
2023-08-07T17:23:03.751Z,15.13
2023-08-07T17:25:30.194Z,10.10
2023-08-07T17:27:56.729Z,15.60
2023-08-07T17:30:23.356Z,12.40
2023-08-07T17:32:49.878Z,12.85
2023-08-07T17:35:16.377Z,10.63
2023-08-07T17:37:42.813Z,9.38
2023-08-07T17:40:09.773Z,10.23
2023-08-07T17:42:36.325Z,12.00
2023-08-07T17:45:03.353Z,9.63
2023-08-07T17:47:29.951Z,10.70
2023-08-07T17:49:56.576Z,10.63
2023-08-07T17:52:23.145Z,9.25
2023-08-07T17:54:51.825Z,8.23
2023-08-07T17:57:18.526Z,12.38
2023-08-07T17:59:46.353Z,7.95
2023-08-07T18:02:13.634Z,11.68
2023-08-07T18:04:42.738Z,12.13
2023-08-07T18:07:09.292Z,7.53
2023-08-07T18:09:35.888Z,8.95
2023-08-07T18:12:02.822Z,9.18
2023-08-07T18:14:29.276Z,6.15
2023-08-07T18:16:55.834Z,5.35
2023-08-07T18:19:22.340Z,6.63
2023-08-07T18:21:48.806Z,6.72
2023-08-07T18:24:15.320Z,6.22
2023-08-07T18:26:41.752Z,6.47
2023-08-07T18:29:08.227Z,10.23
2023-08-07T18:31:35.908Z,5.00
2023-08-07T18:34:02.676Z,9.98
2023-08-07T18:36:30.127Z,7.15
2023-08-07T18:38:56.679Z,3.60
2023-08-07T18:41:23.165Z,5.03
2023-08-07T18:43:50.041Z,6.72
2023-08-07T18:46:17.798Z,4.82
2023-08-07T18:48:44.463Z,7.43
2023-08-07T18:51:10.906Z,5.07
2023-08-07T18:53:40.131Z,5.95
2023-08-07T18:56:06.933Z,5.65
2023-08-07T18:58:35.108Z,4.53
2023-08-07T19:01:01.817Z,4.38
2023-08-07T19:03:28.468Z,3.92
2023-08-07T19:05:55.028Z,4.60
2023-08-07T19:08:21.540Z,5.70
2023-08-07T19:10:48.560Z,4.43
2023-08-07T19:13:15.062Z,7.38
2023-08-07T19:15:41.593Z,4.22
2023-08-07T19:18:08.098Z,5.43
2023-08-07T19:20:34.584Z,6.13
2023-08-07T19:23:03.124Z,4.07
2023-08-07T19:25:29.646Z,3.85
2023-08-07T19:27:56.097Z,5.97
2023-08-07T19:30:22.809Z,7.15
2023-08-07T19:32:49.475Z,5.43
2023-08-07T19:35:16.053Z,4.90
2023-08-07T19:37:42.998Z,3.83
2023-08-07T19:40:10.232Z,3.90
2023-08-07T19:42:37.224Z,4.47
2023-08-07T19:45:04.102Z,3.92
2023-08-07T19:47:36.500Z,4.47
2023-08-07T19:50:04.453Z,4.22
2023-08-07T19:52:31.292Z,6.32
2023-08-07T19:54:57.792Z,5.68
2023-08-07T19:57:24.888Z,2.63
2023-08-07T19:59:51.432Z,3.30
2023-08-07T20:02:17.921Z,3.72
2023-08-07T20:04:44.450Z,2.95
2023-08-07T20:07:10.956Z,4.10
2023-08-07T20:09:39.446Z,5.65
2023-08-07T20:12:07.369Z,5.38
2023-08-07T20:14:36.876Z,2.97
2023-08-07T20:17:07.039Z,2.17
2023-08-07T20:19:33.678Z,3.13
2023-08-07T20:22:00.444Z,4.57
2023-08-07T20:24:29.445Z,3.63
2023-08-07T20:26:56.787Z,3.40
2023-08-07T20:29:23.236Z,3.65
2023-08-07T20:31:49.790Z,3.45
2023-08-07T20:34:16.505Z,5.00
2023-08-07T20:36:43.565Z,3.50
2023-08-07T20:39:11.739Z,4.32
2023-08-07T20:41:38.208Z,2.83
2023-08-07T20:44:04.660Z,3.97
2023-08-07T20:46:32.232Z,2.13
2023-08-07T20:48:58.747Z,3.47
2023-08-07T20:51:25.407Z,3.08
2023-08-07T20:53:52.254Z,2.20
2023-08-07T20:56:19.554Z,4.35
2023-08-07T20:58:49.020Z,2.45
2023-08-07T21:01:16.766Z,2.63
2023-08-07T21:03:43.244Z,4.35
2023-08-07T21:06:09.769Z,1.27
2023-08-07T21:08:36.246Z,3.33
2023-08-07T21:11:02.777Z,4.22
2023-08-07T21:13:29.357Z,2.78
2023-08-07T21:15:55.858Z,2.70
2023-08-07T21:18:23.544Z,2.72
2023-08-07T21:20:50.008Z,2.70
2023-08-07T21:23:17.041Z,2.13
2023-08-07T21:25:43.586Z,3.90
2023-08-07T21:28:13.197Z,4.28
2023-08-07T21:30:39.680Z,3.00
2023-08-07T21:33:06.239Z,2.92
2023-08-07T21:35:32.828Z,3.40
2023-08-07T21:37:59.303Z,3.70
2023-08-07T21:40:25.859Z,2.42
2023-08-07T21:42:52.323Z,2.50
2023-08-07T21:45:18.767Z,3.00
2023-08-07T21:47:45.627Z,4.93
2023-08-07T21:50:12.442Z,3.03
2023-08-07T21:52:39.074Z,2.65
2023-08-07T21:55:06.048Z,3.63
2023-08-07T21:57:33.924Z,2.63
2023-08-07T22:00:00.554Z,2.42
2023-08-07T22:02:27.255Z,3.97
2023-08-07T22:04:53.967Z,2.22
2023-08-07T22:07:20.463Z,3.10
2023-08-07T22:09:46.923Z,2.55
2023-08-07T22:12:13.801Z,2.85
2023-08-07T22:14:40.426Z,3.65
2023-08-07T22:17:08.022Z,2.03
2023-08-07T22:19:34.687Z,3.33
2023-08-07T22:22:02.360Z,3.33
2023-08-07T22:24:29.277Z,3.00
2023-08-07T22:26:55.797Z,3.97
2023-08-07T22:29:22.312Z,2.65
2023-08-07T22:31:48.916Z,2.88
2023-08-07T22:34:15.625Z,3.70
2023-08-07T22:36:42.206Z,5.70
2023-08-07T22:39:08.974Z,2.90
2023-08-07T22:41:35.485Z,2.40
2023-08-07T22:44:02.001Z,3.00
2023-08-07T22:46:28.680Z,2.90
2023-08-07T22:48:55.222Z,2.28
2023-08-07T22:51:21.724Z,4.93
2023-08-07T22:53:48.265Z,2.90
2023-08-07T22:56:14.775Z,2.35
2023-08-07T22:58:41.356Z,3.97
2023-08-07T23:01:08.726Z,3.25
2023-08-07T23:03:35.285Z,4.22
2023-08-07T23:06:02.007Z,3.25
2023-08-07T23:08:28.504Z,3.75
2023-08-07T23:10:55.041Z,4.72
2023-08-07T23:13:21.609Z,4.05
2023-08-07T23:15:48.305Z,4.55
2023-08-07T23:18:15.102Z,4.30
2023-08-07T23:20:41.728Z,2.60
2023-08-07T23:23:08.392Z,4.05
2023-08-07T23:25:35.604Z,3.50
2023-08-07T23:28:02.656Z,2.55
2023-08-07T23:30:30.075Z,2.22
2023-08-07T23:32:56.772Z,5.25
2023-08-07T23:35:23.479Z,3.67
2023-08-07T23:37:50.044Z,5.03
2023-08-07T23:40:16.622Z,4.18
2023-08-07T23:42:43.334Z,3.88
2023-08-07T23:45:10.330Z,4.03
2023-08-07T23:47:36.923Z,3.75
2023-08-07T23:50:03.649Z,4.70
2023-08-07T23:52:31.904Z,4.95
2023-08-07T23:54:58.673Z,3.70
2023-08-07T23:57:25.593Z,3.13
2023-08-07T23:59:52.083Z,3.15
